sensor_id;sensor_type;location;lat;lon;timestamp;pressure;altitude;pressure_sealevel;temperature;humidity
21357;BME280;10836;53.068;18.234;2022-12-19T00:01:35;103149.50;;;-7.91;100.00
21357;BME280;10836;53.068;18.234;2022-12-19T00:04:06;103155.19;;;-7.83;100.00
21357;BME280;10836;53.068;18.234;2022-12-19T00:06:36;103141.28;;;-7.87;100.00
21357;BME280;10836;53.068;18.234;2022-12-19T00:09:10;103127.50;;;-7.79;100.00
21357;BME280;10836;53.068;18.234;2022-12-19T00:11:37;103127.44;;;-7.92;100.00
21357;BME280;10836;53.068;18.234;2022-12-19T00:14:05;103119.56;;;-7.79;100.00
21357;BME280;10836;53.068;18.234;2022-12-19T00:16:32;103122.44;;;-7.82;100.00
21357;BME280;10836;53.068;18.234;2022-12-19T00:18:59;103119.22;;;-7.87;100.00
21357;BME280;10836;53.068;18.234;2022-12-19T00:21:29;103119.59;;;-7.93;100.00
21357;BME280;10836;53.068;18.234;2022-12-19T00:24:02;103117.13;;;-7.82;100.00
21357;BME280;10836;53.068;18.234;2022-12-19T00:26:32;103104.81;;;-7.83;100.00
21357;BME280;10836;53.068;18.234;2022-12-19T00:29:03;103110.66;;;-7.78;100.00
21357;BME280;10836;53.068;18.234;2022-12-19T00:31:38;103098.34;;;-7.79;100.00
21357;BME280;10836;53.068;18.234;2022-12-19T00:34:05;103095.44;;;-7.89;100.00
21357;BME280;10836;53.068;18.234;2022-12-19T00:36:33;103097.22;;;-7.89;100.00
21357;BME280;10836;53.068;18.234;2022-12-19T00:39:01;103100.25;;;-7.95;100.00
21357;BME280;10836;53.068;18.234;2022-12-19T00:41:36;103096.66;;;-7.94;100.00
21357;BME280;10836;53.068;18.234;2022-12-19T00:44:11;103094.19;;;-7.97;100.00
21357;BME280;10836;53.068;18.234;2022-12-19T00:46:38;103094.09;;;-7.96;100.00
21357;BME280;10836;53.068;18.234;2022-12-19T00:49:06;103109.72;;;-8.06;100.00
21357;BME280;10836;53.068;18.234;2022-12-19T00:51:34;103092.97;;;-8.06;100.00
21357;BME280;10836;53.068;18.234;2022-12-19T00:54:02;103084.16;;;-8.07;100.00
21357;BME280;10836;53.068;18.234;2022-12-19T00:56:44;103087.75;;;-8.08;100.00
21357;BME280;10836;53.068;18.234;2022-12-19T00:59:11;103083.19;;;-8.06;100.00
21357;BME280;10836;53.068;18.234;2022-12-19T01:01:39;103097.41;;;-8.07;100.00
21357;BME280;10836;53.068;18.234;2022-12-19T01:04:11;103094.47;;;-8.02;100.00
21357;BME280;10836;53.068;18.234;2022-12-19T01:06:57;103082.16;;;-8.03;100.00
21357;BME280;10836;53.068;18.234;2022-12-19T01:09:33;103083.19;;;-8.06;100.00
21357;BME280;10836;53.068;18.234;2022-12-19T01:12:01;103079.88;;;-8.09;100.00
21357;BME280;10836;53.068;18.234;2022-12-19T01:14:53;103070.41;;;-8.13;100.00
21357;BME280;10836;53.068;18.234;2022-12-19T01:17:22;103056.88;;;-8.09;100.00
21357;BME280;10836;53.068;18.234;2022-12-19T01:19:51;103049.78;;;-8.22;100.00
21357;BME280;10836;53.068;18.234;2022-12-19T01:22:18;103045.72;;;-8.28;100.00
21357;BME280;10836;53.068;18.234;2022-12-19T01:24:45;103046.41;;;-8.24;100.00
21357;BME280;10836;53.068;18.234;2022-12-19T01:27:14;103052.72;;;-8.27;100.00
21357;BME280;10836;53.068;18.234;2022-12-19T01:29:41;103049.13;;;-8.26;100.00
21357;BME280;10836;53.068;18.234;2022-12-19T01:32:20;103040.63;;;-8.31;100.00
21357;BME280;10836;53.068;18.234;2022-12-19T01:34:48;103034.94;;;-8.25;100.00
21357;BME280;10836;53.068;18.234;2022-12-19T01:37:15;103035.13;;;-8.28;100.00
21357;BME280;10836;53.068;18.234;2022-12-19T01:39:42;103040.84;;;-8.34;100.00
21357;BME280;10836;53.068;18.234;2022-12-19T01:42:16;103044.22;;;-8.32;100.00
21357;BME280;10836;53.068;18.234;2022-12-19T01:47:52;103033.34;;;-8.42;100.00
21357;BME280;10836;53.068;18.234;2022-12-19T01:53:01;103031.09;;;-8.33;100.00
21357;BME280;10836;53.068;18.234;2022-12-19T01:55:29;103026.41;;;-8.30;100.00
21357;BME280;10836;53.068;18.234;2022-12-19T01:57:58;103021.34;;;-8.33;100.00
21357;BME280;10836;53.068;18.234;2022-12-19T02:00:25;103026.16;;;-8.40;100.00
21357;BME280;10836;53.068;18.234;2022-12-19T02:03:06;103011.97;;;-8.38;100.00
21357;BME280;10836;53.068;18.234;2022-12-19T02:05:42;103016.22;;;-8.36;100.00
21357;BME280;10836;53.068;18.234;2022-12-19T02:08:09;103000.22;;;-8.49;100.00
21357;BME280;10836;53.068;18.234;2022-12-19T02:10:37;103005.50;;;-8.49;100.00
21357;BME280;10836;53.068;18.234;2022-12-19T02:13:04;103005.78;;;-8.53;100.00
21357;BME280;10836;53.068;18.234;2022-12-19T02:15:37;102998.78;;;-8.54;100.00
21357;BME280;10836;53.068;18.234;2022-12-19T02:21:06;102996.63;;;-8.48;100.00
21357;BME280;10836;53.068;18.234;2022-12-19T02:24:17;102998.50;;;-8.50;100.00
21357;BME280;10836;53.068;18.234;2022-12-19T02:30:10;102993.88;;;-8.46;100.00
21357;BME280;10836;53.068;18.234;2022-12-19T02:32:40;102984.59;;;-8.53;100.00
21357;BME280;10836;53.068;18.234;2022-12-19T02:40:55;102983.16;;;-8.59;100.00
21357;BME280;10836;53.068;18.234;2022-12-19T02:43:27;102965.31;;;-8.69;100.00
21357;BME280;10836;53.068;18.234;2022-12-19T02:45:56;102979.19;;;-8.80;100.00
21357;BME280;10836;53.068;18.234;2022-12-19T02:48:26;102984.41;;;-8.79;100.00
21357;BME280;10836;53.068;18.234;2022-12-19T02:50:53;102974.00;;;-8.82;100.00
21357;BME280;10836;53.068;18.234;2022-12-19T02:53:20;102978.53;;;-8.84;100.00
21357;BME280;10836;53.068;18.234;2022-12-19T02:56:16;102966.97;;;-8.83;100.00
21357;BME280;10836;53.068;18.234;2022-12-19T02:59:14;102966.41;;;-8.88;100.00
21357;BME280;10836;53.068;18.234;2022-12-19T03:02:03;102971.56;;;-9.00;100.00
21357;BME280;10836;53.068;18.234;2022-12-19T03:10:20;102948.41;;;-9.11;100.00
21357;BME280;10836;53.068;18.234;2022-12-19T03:12:57;102948.88;;;-9.04;100.00
21357;BME280;10836;53.068;18.234;2022-12-19T03:15:27;102944.81;;;-9.10;100.00
21357;BME280;10836;53.068;18.234;2022-12-19T03:17:56;102952.19;;;-9.15;100.00
21357;BME280;10836;53.068;18.234;2022-12-19T03:20:36;102948.09;;;-9.21;100.00
21357;BME280;10836;53.068;18.234;2022-12-19T03:23:05;102963.47;;;-9.27;100.00
21357;BME280;10836;53.068;18.234;2022-12-19T03:25:33;102954.66;;;-9.12;100.00
21357;BME280;10836;53.068;18.234;2022-12-19T03:28:04;102949.91;;;-9.07;100.00
21357;BME280;10836;53.068;18.234;2022-12-19T03:30:34;102943.75;;;-9.08;100.00
21357;BME280;10836;53.068;18.234;2022-12-19T03:33:02;102933.38;;;-9.11;100.00
21357;BME280;10836;53.068;18.234;2022-12-19T03:35:30;102936.88;;;-9.10;100.00
21357;BME280;10836;53.068;18.234;2022-12-19T03:38:01;102932.53;;;-9.11;100.00
21357;BME280;10836;53.068;18.234;2022-12-19T03:40:31;102921.19;;;-9.13;100.00
21357;BME280;10836;53.068;18.234;2022-12-19T03:43:02;102922.69;;;-9.09;100.00
21357;BME280;10836;53.068;18.234;2022-12-19T03:45:55;102913.44;;;-9.16;100.00
21357;BME280;10836;53.068;18.234;2022-12-19T03:51:28;102898.22;;;-9.13;100.00
21357;BME280;10836;53.068;18.234;2022-12-19T03:54:07;102891.91;;;-9.10;100.00
21357;BME280;10836;53.068;18.234;2022-12-19T03:56:44;102890.38;;;-9.14;100.00
21357;BME280;10836;53.068;18.234;2022-12-19T04:01:52;102879.59;;;-9.11;100.00
21357;BME280;10836;53.068;18.234;2022-12-19T04:04:21;102874.31;;;-9.11;100.00
21357;BME280;10836;53.068;18.234;2022-12-19T04:06:51;102873.47;;;-9.12;100.00
21357;BME280;10836;53.068;18.234;2022-12-19T04:09:21;102868.25;;;-9.13;100.00
21357;BME280;10836;53.068;18.234;2022-12-19T04:11:53;102881.88;;;-9.19;100.00
21357;BME280;10836;53.068;18.234;2022-12-19T04:14:29;102870.50;;;-9.07;100.00
21357;BME280;10836;53.068;18.234;2022-12-19T04:19:48;102893.56;;;-9.09;100.00
21357;BME280;10836;53.068;18.234;2022-12-19T04:22:22;102886.78;;;-9.13;100.00
21357;BME280;10836;53.068;18.234;2022-12-19T04:24:52;102875.16;;;-9.11;100.00
21357;BME280;10836;53.068;18.234;2022-12-19T04:27:20;102860.31;;;-9.13;100.00
21357;BME280;10836;53.068;18.234;2022-12-19T04:29:51;102862.66;;;-9.09;100.00
21357;BME280;10836;53.068;18.234;2022-12-19T04:32:22;102865.03;;;-9.04;100.00
21357;BME280;10836;53.068;18.234;2022-12-19T04:34:50;102859.06;;;-9.08;100.00
21357;BME280;10836;53.068;18.234;2022-12-19T04:37:17;102859.75;;;-9.04;100.00
21357;BME280;10836;53.068;18.234;2022-12-19T04:39:44;102859.75;;;-9.04;100.00
21357;BME280;10836;53.068;18.234;2022-12-19T04:42:11;102854.25;;;-9.01;100.00
21357;BME280;10836;53.068;18.234;2022-12-19T04:44:38;102848.69;;;-9.11;100.00
21357;BME280;10836;53.068;18.234;2022-12-19T04:47:05;102845.75;;;-9.06;100.00
21357;BME280;10836;53.068;18.234;2022-12-19T04:49:32;102849.34;;;-9.07;100.00
21357;BME280;10836;53.068;18.234;2022-12-19T04:51:59;102849.53;;;-8.96;100.00
21357;BME280;10836;53.068;18.234;2022-12-19T04:54:26;102848.78;;;-8.98;100.00
21357;BME280;10836;53.068;18.234;2022-12-19T04:56:53;102847.44;;;-9.05;100.00
21357;BME280;10836;53.068;18.234;2022-12-19T04:59:20;102849.16;;;-9.04;100.00
21357;BME280;10836;53.068;18.234;2022-12-19T05:01:47;102846.69;;;-9.07;100.00
21357;BME280;10836;53.068;18.234;2022-12-19T05:04:14;102841.22;;;-9.18;100.00
21357;BME280;10836;53.068;18.234;2022-12-19T05:06:41;102842.06;;;-9.18;100.00
21357;BME280;10836;53.068;18.234;2022-12-19T05:09:09;102837.25;;;-9.11;100.00
21357;BME280;10836;53.068;18.234;2022-12-19T05:11:36;102829.09;;;-9.08;100.00
21357;BME280;10836;53.068;18.234;2022-12-19T05:14:03;102829.69;;;-9.03;100.00
21357;BME280;10836;53.068;18.234;2022-12-19T05:16:30;102826.47;;;-9.08;100.00
21357;BME280;10836;53.068;18.234;2022-12-19T05:18:58;102827.03;;;-9.03;100.00
21357;BME280;10836;53.068;18.234;2022-12-19T05:21:25;102817.00;;;-8.98;100.00
21357;BME280;10836;53.068;18.234;2022-12-19T05:23:52;102824.56;;;-9.06;100.00
21357;BME280;10836;53.068;18.234;2022-12-19T05:26:19;102818.84;;;-9.13;100.00
21357;BME280;10836;53.068;18.234;2022-12-19T05:28:46;102829.69;;;-9.03;100.00
21357;BME280;10836;53.068;18.234;2022-12-19T05:31:18;102823.53;;;-9.03;100.00
21357;BME280;10836;53.068;18.234;2022-12-19T05:33:48;102813.22;;;-9.08;100.00
21357;BME280;10836;53.068;18.234;2022-12-19T05:36:16;102814.16;;;-9.09;100.00
21357;BME280;10836;53.068;18.234;2022-12-19T05:38:43;102803.50;;;-9.08;100.00
21357;BME280;10836;53.068;18.234;2022-12-19T05:41:16;102803.41;;;-9.06;100.00
21357;BME280;10836;53.068;18.234;2022-12-19T05:43:45;102806.34;;;-9.11;100.00
21357;BME280;10836;53.068;18.234;2022-12-19T05:46:12;102800.22;;;-9.11;100.00
21357;BME280;10836;53.068;18.234;2022-12-19T05:48:39;102794.91;;;-9.11;100.00
21357;BME280;10836;53.068;18.234;2022-12-19T05:51:07;102785.63;;;-9.04;100.00
21357;BME280;10836;53.068;18.234;2022-12-19T05:53:35;102780.34;;;-9.04;100.00
21357;BME280;10836;53.068;18.234;2022-12-19T05:56:07;102772.59;;;-9.07;100.00
21357;BME280;10836;53.068;18.234;2022-12-19T05:58:35;102772.50;;;-9.06;100.00
21357;BME280;10836;53.068;18.234;2022-12-19T06:01:26;102773.53;;;-8.94;100.00
21357;BME280;10836;53.068;18.234;2022-12-19T06:03:52;102776.56;;;-9.00;100.00
21357;BME280;10836;53.068;18.234;2022-12-19T06:06:22;102779.94;;;-8.98;100.00
21357;BME280;10836;53.068;18.234;2022-12-19T06:08:54;102767.66;;;-8.99;100.00
21357;BME280;10836;53.068;18.234;2022-12-19T06:11:22;102758.59;;;-8.95;100.00
21357;BME280;10836;53.068;18.234;2022-12-19T06:13:49;102761.53;;;-8.99;100.00
21357;BME280;10836;53.068;18.234;2022-12-19T06:16:19;102758.78;;;-8.98;100.00
21357;BME280;10836;53.068;18.234;2022-12-19T06:18:46;102752.16;;;-9.05;100.00
21357;BME280;10836;53.068;18.234;2022-12-19T06:21:16;102763.88;;;-8.95;100.00
21357;BME280;10836;53.068;18.234;2022-12-19T06:23:43;102763.69;;;-8.92;100.00
21357;BME280;10836;53.068;18.234;2022-12-19T06:26:13;102758.78;;;-8.98;100.00
21357;BME280;10836;53.068;18.234;2022-12-19T06:28:52;102759.63;;;-8.97;100.00
21357;BME280;10836;53.068;18.234;2022-12-19T06:31:22;102771.44;;;-9.03;100.00
21357;BME280;10836;53.068;18.234;2022-12-19T06:33:50;102768.63;;;-9.00;100.00
21357;BME280;10836;53.068;18.234;2022-12-19T06:36:23;102769.94;;;-9.07;100.00
21357;BME280;10836;53.068;18.234;2022-12-19T06:38:51;102768.97;;;-8.92;100.00
21357;BME280;10836;53.068;18.234;2022-12-19T06:41:20;102768.97;;;-8.92;100.00
21357;BME280;10836;53.068;18.234;2022-12-19T06:44:08;102769.19;;;-8.95;100.00
21357;BME280;10836;53.068;18.234;2022-12-19T06:46:37;102777.13;;;-8.95;100.00
21357;BME280;10836;53.068;18.234;2022-12-19T06:49:05;102786.75;;;-8.94;100.00
21357;BME280;10836;53.068;18.234;2022-12-19T06:51:32;102791.00;;;-8.91;100.00
21357;BME280;10836;53.068;18.234;2022-12-19T06:53:59;102796.69;;;-8.97;100.00
21357;BME280;10836;53.068;18.234;2022-12-19T06:56:26;102789.97;;;-8.89;100.00
21357;BME280;10836;53.068;18.234;2022-12-19T06:58:53;102782.41;;;-8.95;100.00
21357;BME280;10836;53.068;18.234;2022-12-19T07:04:25;102782.97;;;-8.90;100.00
21357;BME280;10836;53.068;18.234;2022-12-19T07:06:55;102777.22;;;-8.96;100.00
21357;BME280;10836;53.068;18.234;2022-12-19T07:09:22;102775.69;;;-9.00;100.00
21357;BME280;10836;53.068;18.234;2022-12-19T07:11:49;102771.06;;;-8.97;100.00
21357;BME280;10836;53.068;18.234;2022-12-19T07:14:16;102771.06;;;-8.97;100.00
21357;BME280;10836;53.068;18.234;2022-12-19T07:16:44;102770.22;;;-8.97;100.00
21357;BME280;10836;53.068;18.234;2022-12-19T07:19:11;102763.13;;;-8.97;100.00
21357;BME280;10836;53.068;18.234;2022-12-19T07:21:38;102759.25;;;-8.91;100.00
21357;BME280;10836;53.068;18.234;2022-12-19T07:24:06;102757.53;;;-8.92;100.00
21357;BME280;10836;53.068;18.234;2022-12-19T07:26:34;102749.50;;;-8.91;100.00
21357;BME280;10836;53.068;18.234;2022-12-19T07:29:02;102739.97;;;-8.93;100.00
21357;BME280;10836;53.068;18.234;2022-12-19T07:31:29;102731.53;;;-8.86;100.00
21357;BME280;10836;53.068;18.234;2022-12-19T07:33:56;102741.75;;;-8.80;100.00
21357;BME280;10836;53.068;18.234;2022-12-19T07:36:24;102730.13;;;-8.64;100.00
21357;BME280;10836;53.068;18.234;2022-12-19T07:38:50;102726.91;;;-8.55;100.00
21357;BME280;10836;53.068;18.234;2022-12-19T07:41:18;102713.84;;;-8.58;100.00
21357;BME280;10836;53.068;18.234;2022-12-19T07:43:44;102715.75;;;-8.60;100.00
21357;BME280;10836;53.068;18.234;2022-12-19T07:46:12;102710.75;;;-8.38;100.00
21357;BME280;10836;53.068;18.234;2022-12-19T07:48:39;102696.34;;;-8.09;100.00
21357;BME280;10836;53.068;18.234;2022-12-19T07:51:06;102697.22;;;-7.70;100.00
21357;BME280;10836;53.068;18.234;2022-12-19T07:53:32;102685.72;;;-7.32;100.00
21357;BME280;10836;53.068;18.234;2022-12-19T07:55:59;102676.81;;;-7.31;100.00
21357;BME280;10836;53.068;18.234;2022-12-19T07:58:26;102677.41;;;-7.02;100.00
21357;BME280;10836;53.068;18.234;2022-12-19T08:00:55;102663.28;;;-6.20;100.00
21357;BME280;10836;53.068;18.234;2022-12-19T08:03:23;102672.03;;;-5.74;100.00
21357;BME280;10836;53.068;18.234;2022-12-19T08:05:50;102667.06;;;-5.78;97.39
21357;BME280;10836;53.068;18.234;2022-12-19T08:08:17;102664.78;;;-5.72;97.23
21357;BME280;10836;53.068;18.234;2022-12-19T08:10:44;102659.34;;;-5.48;95.87
21357;BME280;10836;53.068;18.234;2022-12-19T08:13:11;102650.16;;;-5.66;95.33
21357;BME280;10836;53.068;18.234;2022-12-19T08:15:38;102640.94;;;-5.62;95.24
21357;BME280;10836;53.068;18.234;2022-12-19T08:18:05;102652.31;;;-5.49;96.16
21357;BME280;10836;53.068;18.234;2022-12-19T08:20:32;102657.16;;;-5.98;96.39
21357;BME280;10836;53.068;18.234;2022-12-19T08:22:59;102652.69;;;-5.64;95.32
21357;BME280;10836;53.068;18.234;2022-12-19T08:25:26;102650.88;;;-5.42;95.21
21357;BME280;10836;53.068;18.234;2022-12-19T08:27:53;102631.50;;;-5.32;94.17
21357;BME280;10836;53.068;18.234;2022-12-19T08:30:19;102636.53;;;-5.18;94.49
21357;BME280;10836;53.068;18.234;2022-12-19T08:32:46;102630.22;;;-4.95;91.86
21357;BME280;10836;53.068;18.234;2022-12-19T08:35:14;102632.25;;;-4.55;90.27
21357;BME280;10836;53.068;18.234;2022-12-19T08:37:41;102626.88;;;-3.72;87.91
21357;BME280;10836;53.068;18.234;2022-12-19T08:40:08;102621.66;;;-3.53;84.41
21357;BME280;10836;53.068;18.234;2022-12-19T08:42:36;102621.59;;;-4.14;86.10
21357;BME280;10836;53.068;18.234;2022-12-19T08:45:03;102632.53;;;-4.17;85.95
21357;BME280;10836;53.068;18.234;2022-12-19T08:47:30;102625.03;;;-3.51;83.60
21357;BME280;10836;53.068;18.234;2022-12-19T08:49:57;102635.59;;;-2.90;81.74
21357;BME280;10836;53.068;18.234;2022-12-19T08:52:24;102628.25;;;-3.07;82.16
21357;BME280;10836;53.068;18.234;2022-12-19T08:54:51;102636.56;;;-3.41;81.70
21357;BME280;10836;53.068;18.234;2022-12-19T08:57:17;102622.31;;;-3.20;81.59
21357;BME280;10836;53.068;18.234;2022-12-19T08:59:44;102612.25;;;-2.49;81.01
21357;BME280;10836;53.068;18.234;2022-12-19T09:02:13;102605.91;;;-2.77;79.09
21357;BME280;10836;53.068;18.234;2022-12-19T09:04:42;102603.22;;;-2.96;80.81
21357;BME280;10836;53.068;18.234;2022-12-19T09:07:29;102593.94;;;-2.25;78.68
21357;BME280;10836;53.068;18.234;2022-12-19T09:09:56;102589.56;;;-2.45;78.39
21357;BME280;10836;53.068;18.234;2022-12-19T09:12:26;102586.63;;;-2.42;79.28
21357;BME280;10836;53.068;18.234;2022-12-19T09:14:53;102578.72;;;-2.53;79.59
21357;BME280;10836;53.068;18.234;2022-12-19T09:17:20;102577.03;;;-2.35;78.15
21357;BME280;10836;53.068;18.234;2022-12-19T09:19:47;102568.72;;;-2.32;78.25
21357;BME280;10836;53.068;18.234;2022-12-19T09:22:15;102559.31;;;-2.55;79.33
21357;BME280;10836;53.068;18.234;2022-12-19T09:24:42;102561.09;;;-1.25;77.57
21357;BME280;10836;53.068;18.234;2022-12-19T09:27:09;102543.84;;;-1.68;75.34
21357;BME280;10836;53.068;18.234;2022-12-19T09:29:36;102548.00;;;-0.75;72.43
21357;BME280;10836;53.068;18.234;2022-12-19T09:32:03;102554.75;;;-1.52;75.22
21357;BME280;10836;53.068;18.234;2022-12-19T09:34:30;102548.59;;;-1.35;75.31
21357;BME280;10836;53.068;18.234;2022-12-19T09:37:09;102542.59;;;-2.11;76.49
21357;BME280;10836;53.068;18.234;2022-12-19T09:39:45;102535.59;;;-1.12;74.78
21357;BME280;10836;53.068;18.234;2022-12-19T09:45:24;102529.06;;;-1.45;76.98
21357;BME280;10836;53.068;18.234;2022-12-19T09:47:59;102519.84;;;-0.97;74.25
21357;BME280;10836;53.068;18.234;2022-12-19T09:50:32;102531.09;;;-1.84;76.48
21357;BME280;10836;53.068;18.234;2022-12-19T09:53:05;102510.19;;;-2.08;78.79
21357;BME280;10836;53.068;18.234;2022-12-19T09:55:35;102509.50;;;-1.55;76.83
21357;BME280;10836;53.068;18.234;2022-12-19T09:58:36;102505.44;;;-1.59;75.84
21357;BME280;10836;53.068;18.234;2022-12-19T10:01:14;102475.47;;;-1.45;75.56
21357;BME280;10836;53.068;18.234;2022-12-19T10:06:31;102480.03;;;-2.10;78.08
21357;BME280;10836;53.068;18.234;2022-12-19T10:09:19;102473.72;;;-1.81;78.64
21357;BME280;10836;53.068;18.234;2022-12-19T10:12:18;102463.19;;;-1.65;77.10
21357;BME280;10836;53.068;18.234;2022-12-19T10:15:26;102448.75;;;-1.37;76.57
21357;BME280;10836;53.068;18.234;2022-12-19T10:17:57;102445.66;;;-0.88;75.13
21357;BME280;10836;53.068;18.234;2022-12-19T10:20:29;102436.41;;;-1.29;74.96
21357;BME280;10836;53.068;18.234;2022-12-19T10:23:23;102421.41;;;-0.19;73.82
21357;BME280;10836;53.068;18.234;2022-12-19T10:26:05;102420.09;;;-0.75;73.30
21357;BME280;10836;53.068;18.234;2022-12-19T10:33:57;102420.41;;;-1.75;77.57
21357;BME280;10836;53.068;18.234;2022-12-19T10:36:29;102405.28;;;-1.30;76.16
21357;BME280;10836;53.068;18.234;2022-12-19T10:39:32;102404.50;;;-1.41;77.76
21357;BME280;10836;53.068;18.234;2022-12-19T10:42:11;102400.84;;;-1.40;78.28
21357;BME280;10836;53.068;18.234;2022-12-19T10:44:43;102399.91;;;-0.61;74.54
21357;BME280;10836;53.068;18.234;2022-12-19T10:47:14;102409.56;;;-0.42;73.37
21357;BME280;10836;53.068;18.234;2022-12-19T10:49:42;102413.19;;;0.25;71.82
21357;BME280;10836;53.068;18.234;2022-12-19T10:52:11;102415.94;;;0.74;68.14
21357;BME280;10836;53.068;18.234;2022-12-19T10:54:41;102412.16;;;-0.24;71.39
21357;BME280;10836;53.068;18.234;2022-12-19T10:59:58;102421.66;;;-0.38;72.08
21357;BME280;10836;53.068;18.234;2022-12-19T11:08:19;102370.50;;;-0.71;74.69
21357;BME280;10836;53.068;18.234;2022-12-19T11:10:54;102376.00;;;-0.46;72.68
21357;BME280;10836;53.068;18.234;2022-12-19T11:13:44;102372.75;;;-0.24;73.26
21357;BME280;10836;53.068;18.234;2022-12-19T11:16:34;102366.34;;;-0.65;74.98
21357;BME280;10836;53.068;18.234;2022-12-19T11:25:14;102366.69;;;-0.26;73.34
21357;BME280;10836;53.068;18.234;2022-12-19T11:28:16;102358.97;;;-0.63;74.43
21357;BME280;10836;53.068;18.234;2022-12-19T11:31:14;102352.59;;;-0.28;75.01
21357;BME280;10836;53.068;18.234;2022-12-19T11:34:05;102345.44;;;-0.53;73.90
21357;BME280;10836;53.068;18.234;2022-12-19T11:36:58;102322.28;;;-0.12;75.05
21357;BME280;10836;53.068;18.234;2022-12-19T11:39:54;102336.53;;;-0.12;72.94
21357;BME280;10836;53.068;18.234;2022-12-19T11:45:55;102319.00;;;-0.74;75.07
21357;BME280;10836;53.068;18.234;2022-12-19T11:48:11;102321.84;;;-1.27;78.00
21357;BME280;10836;53.068;18.234;2022-12-19T11:50:53;102316.13;;;-0.81;78.35
21357;BME280;10836;53.068;18.234;2022-12-19T11:53:28;102319.53;;;-1.30;77.91
21357;BME280;10836;53.068;18.234;2022-12-19T11:56:03;102309.13;;;-1.33;79.51
21357;BME280;10836;53.068;18.234;2022-12-19T11:58:56;102300.09;;;-1.24;78.70
21357;BME280;10836;53.068;18.234;2022-12-19T12:01:49;102298.66;;;-1.62;80.60
21357;BME280;10836;53.068;18.234;2022-12-19T12:07:04;102285.50;;;-2.27;84.48
21357;BME280;10836;53.068;18.234;2022-12-19T12:16:13;102263.03;;;-1.37;81.79
21357;BME280;10836;53.068;18.234;2022-12-19T12:19:13;102268.06;;;-1.08;80.63
21357;BME280;10836;53.068;18.234;2022-12-19T12:22:08;102266.97;;;-1.67;82.36
21357;BME280;10836;53.068;18.234;2022-12-19T12:37:41;102231.28;;;-1.50;83.42
21357;BME280;10836;53.068;18.234;2022-12-19T12:45:44;102211.28;;;-2.25;87.76
21357;BME280;10836;53.068;18.234;2022-12-19T12:48:33;102206.31;;;-2.20;87.25
21357;BME280;10836;53.068;18.234;2022-12-19T12:51:02;102201.28;;;-2.23;88.28
21357;BME280;10836;53.068;18.234;2022-12-19T12:53:36;102177.03;;;-2.21;88.13
21357;BME280;10836;53.068;18.234;2022-12-19T12:56:06;102177.72;;;-2.37;88.87
21357;BME280;10836;53.068;18.234;2022-12-19T13:01:33;102160.97;;;-2.39;89.82
21357;BME280;10836;53.068;18.234;2022-12-19T13:04:04;102150.44;;;-2.41;89.68
21357;BME280;10836;53.068;18.234;2022-12-19T13:09:20;102165.69;;;-2.51;90.56
21357;BME280;10836;53.068;18.234;2022-12-19T13:11:53;102167.69;;;-2.35;90.34
21357;BME280;10836;53.068;18.234;2022-12-19T13:14:43;102155.41;;;-2.28;90.44
21357;BME280;10836;53.068;18.234;2022-12-19T13:24:59;102147.00;;;-2.33;91.24
21357;BME280;10836;53.068;18.234;2022-12-19T13:27:32;102148.22;;;-2.45;91.48
21357;BME280;10836;53.068;18.234;2022-12-19T13:38:16;102153.25;;;-2.42;92.77
21357;BME280;10836;53.068;18.234;2022-12-19T13:41:04;102139.41;;;-2.38;92.64
21357;BME280;10836;53.068;18.234;2022-12-19T13:43:57;102131.84;;;-2.42;92.55
21357;BME280;10836;53.068;18.234;2022-12-19T13:46:38;102135.00;;;-2.47;92.78
21357;BME280;10836;53.068;18.234;2022-12-19T13:49:18;102126.81;;;-2.45;92.59
21357;BME280;10836;53.068;18.234;2022-12-19T13:51:53;102134.06;;;-2.55;93.89
21357;BME280;10836;53.068;18.234;2022-12-19T13:56:51;102123.16;;;-2.44;93.33
21357;BME280;10836;53.068;18.234;2022-12-19T13:59:20;102115.72;;;-2.32;93.25
21357;BME280;10836;53.068;18.234;2022-12-19T14:01:51;102119.16;;;-2.40;92.85
21357;BME280;10836;53.068;18.234;2022-12-19T14:04:30;102129.56;;;-2.37;92.92
21357;BME280;10836;53.068;18.234;2022-12-19T14:07:00;102120.47;;;-2.44;93.36
21357;BME280;10836;53.068;18.234;2022-12-19T14:09:41;102111.38;;;-2.51;93.81
21357;BME280;10836;53.068;18.234;2022-12-19T14:12:32;102116.03;;;-2.53;94.32
21357;BME280;10836;53.068;18.234;2022-12-19T14:15:40;102092.28;;;-2.56;94.67
21357;BME280;10836;53.068;18.234;2022-12-19T14:18:19;102090.38;;;-2.64;95.27
21357;BME280;10836;53.068;18.234;2022-12-19T14:24:12;102094.13;;;-2.75;96.10
21357;BME280;10836;53.068;18.234;2022-12-19T14:26:41;102093.34;;;-2.85;96.77
21357;BME280;10836;53.068;18.234;2022-12-19T14:29:45;102091.81;;;-2.87;96.82
21357;BME280;10836;53.068;18.234;2022-12-19T14:32:33;102092.44;;;-2.76;96.44
21357;BME280;10836;53.068;18.234;2022-12-19T14:35:26;102086.34;;;-2.68;96.65
21357;BME280;10836;53.068;18.234;2022-12-19T14:38:18;102084.28;;;-2.74;97.02
21357;BME280;10836;53.068;18.234;2022-12-19T14:41:20;102071.91;;;-2.75;97.29
21357;BME280;10836;53.068;18.234;2022-12-19T14:44:46;102071.66;;;-2.64;97.10
21357;BME280;10836;53.068;18.234;2022-12-19T14:47:36;102072.13;;;-2.69;96.85
21357;BME280;10836;53.068;18.234;2022-12-19T14:53:16;102062.53;;;-2.53;96.78
21357;BME280;10836;53.068;18.234;2022-12-19T14:56:14;102047.81;;;-2.57;96.29
21357;BME280;10836;53.068;18.234;2022-12-19T14:59:02;102036.78;;;-2.54;96.76
21357;BME280;10836;53.068;18.234;2022-12-19T15:01:32;102043.81;;;-2.53;96.81
21357;BME280;10836;53.068;18.234;2022-12-19T15:04:15;102033.44;;;-2.56;97.11
21357;BME280;10836;53.068;18.234;2022-12-19T15:07:06;102032.13;;;-2.52;96.50
21357;BME280;10836;53.068;18.234;2022-12-19T15:10:00;102030.06;;;-2.58;96.99